Time;durP1;ratioP1;P1;durP2;ratioP2;P2;SDS_P1;SDS_P2;PMS_P1;PMS_P2;Temp;Humidity;BMP_temperature;BMP_pressure;BME280_temperature;BME280_humidity;BME280_pressure;Samples;Min_cycle;Max_cycle;Signal;HPM_P1;HPM_P2
2022/04/21 00:00:34;;;;;;;10.27;6.32;;;7.60;99.90;;;;;;5051393;28;20126;-81
2022/04/21 00:03:01;;;;;;;12.13;7.45;;;7.70;99.90;;;;;;5050382;28;20048;-81
2022/04/21 00:05:26;;;;;;;11.60;6.93;;;7.80;99.90;;;;;;5051677;28;20484;-81
2022/04/21 00:07:53;;;;;;;10.32;6.85;;;7.60;99.90;;;;;;5051405;28;20048;-81
2022/04/21 00:10:19;;;;;;;10.23;6.55;;;7.50;99.90;;;;;;5051229;28;20123;-81
2022/04/21 00:12:45;;;;;;;10.75;7.05;;;7.50;99.90;;;;;;5034654;28;20404;-81
2022/04/21 00:15:11;;;;;;;9.75;6.63;;;7.50;99.90;;;;;;5051243;28;20044;-81
2022/04/21 00:17:38;;;;;;;9.43;6.68;;;7.50;99.90;;;;;;5034009;28;20468;-81
2022/04/21 00:20:05;;;;;;;12.60;7.68;;;7.40;99.90;;;;;;5051130;28;20029;-81
2022/04/21 00:25:14;;;;;;;10.20;6.32;;;7.30;99.90;;;;;;5051169;28;20151;-81
2022/04/21 00:27:43;;;;;;;12.85;8.02;;;7.30;99.90;;;;;;5050970;28;20124;-81
2022/04/21 00:30:11;;;;;;;12.63;7.05;;;7.30;99.90;;;;;;5045230;28;20098;-81
2022/04/21 00:32:38;;;;;;;8.73;5.65;;;7.30;99.90;;;;;;5069785;28;20114;-81
2022/04/21 00:35:06;;;;;;;12.77;7.57;;;7.30;99.90;;;;;;5071375;28;20450;-81
2022/04/21 00:37:32;;;;;;;11.18;6.47;;;7.40;99.90;;;;;;5054093;28;20047;-81
2022/04/21 00:39:59;;;;;;;10.80;7.00;;;7.40;99.90;;;;;;5057351;28;20033;-81
2022/04/21 00:42:25;;;;;;;11.10;6.88;;;7.50;99.90;;;;;;5058000;28;20388;-81
2022/04/21 00:44:51;;;;;;;10.93;7.07;;;7.40;99.90;;;;;;5058340;28;20400;-81
2022/04/21 00:47:18;;;;;;;11.80;7.95;;;7.40;99.90;;;;;;5057121;28;20052;-81
2022/04/21 00:49:48;;;;;;;10.52;6.30;;;7.30;99.90;;;;;;5057767;28;20082;-81
2022/04/21 00:52:15;;;;;;;10.00;6.47;;;7.30;99.90;;;;;;5057590;28;20045;-81
2022/04/21 00:54:42;;;;;;;9.32;6.47;;;7.40;99.90;;;;;;5074734;28;20037;-81
2022/04/21 00:57:08;;;;;;;11.48;6.85;;;7.40;99.90;;;;;;5074527;28;20036;-81
2022/04/21 00:59:34;;;;;;;11.15;6.40;;;7.30;99.90;;;;;;5057597;28;20039;-81
2022/04/21 01:04:48;;;;;;;10.45;5.95;;;7.30;99.90;;;;;;5071027;28;20048;-81
2022/04/21 01:07:13;;;;;;;10.68;6.50;;;7.30;99.90;;;;;;5070845;28;20049;-81
2022/04/21 01:09:39;;;;;;;10.07;5.78;;;7.20;99.90;;;;;;5070987;28;20051;-81
2022/04/21 01:12:09;;;;;;;9.50;6.50;;;7.30;99.90;;;;;;5070635;28;20146;-81
2022/04/21 01:14:39;;;;;;;9.13;5.85;;;7.30;99.90;;;;;;5056454;28;20572;-81
2022/04/21 01:17:05;;;;;;;9.82;6.35;;;7.30;99.90;;;;;;5056480;28;20072;-81
2022/04/21 01:19:31;;;;;;;10.15;6.57;;;7.40;99.90;;;;;;5073699;28;20048;-81
2022/04/21 01:21:57;;;;;;;9.75;5.82;;;7.40;99.90;;;;;;5050108;28;20652;-81
2022/04/21 01:24:23;;;;;;;14.18;7.05;;;7.40;99.90;;;;;;5053405;28;20136;-81
2022/04/21 01:26:49;;;;;;;11.00;6.28;;;7.40;99.90;;;;;;5053517;28;20045;-81
2022/04/21 01:29:15;;;;;;;8.88;5.78;;;7.40;99.90;;;;;;5053615;28;20591;-81
2022/04/21 01:31:42;;;;;;;9.38;6.32;;;7.40;99.90;;;;;;5052486;28;20055;-81
2022/04/21 01:34:07;;;;;;;11.10;6.70;;;7.40;99.90;;;;;;5060145;28;20053;-81
2022/04/21 01:36:33;;;;;;;10.32;5.90;;;7.40;99.90;;;;;;5073232;28;20040;-81
2022/04/21 01:41:43;;;;;;;15.15;10.25;;;7.30;99.90;;;;;;5073138;28;20096;-81
2022/04/21 01:44:10;;;;;;;14.32;8.95;;;6.80;99.90;;;;;;5056517;28;20484;-81
2022/04/21 01:46:36;;;;;;;13.35;8.98;;;6.80;99.90;;;;;;5072246;28;20070;-81
2022/04/21 01:49:01;;;;;;;12.43;9.18;;;6.80;99.90;;;;;;5056756;28;20045;-81
2022/04/21 01:51:27;;;;;;;12.43;8.73;;;6.80;99.90;;;;;;5072684;28;20039;-81
2022/04/21 01:53:53;;;;;;;14.38;9.43;;;6.70;99.90;;;;;;5073004;28;20106;-81
2022/04/21 01:56:18;;;;;;;13.45;9.20;;;6.70;99.90;;;;;;5055963;28;20036;-81
2022/04/21 01:58:45;;;;;;;11.75;8.95;;;6.70;99.90;;;;;;5072286;28;20041;-81
2022/04/21 02:01:11;;;;;;;13.70;9.63;;;6.70;99.90;;;;;;5055237;28;20037;-81
2022/04/21 02:03:36;;;;;;;12.77;9.13;;;6.60;99.90;;;;;;5073129;28;20047;-81
2022/04/21 02:06:02;;;;;;;14.35;9.65;;;6.60;99.90;;;;;;5019616;28;20036;-81
2022/04/21 02:08:28;;;;;;;14.45;10.20;;;6.50;99.90;;;;;;5052930;28;20040;-81
2022/04/21 02:10:54;;;;;;;16.08;11.48;;;6.50;99.90;;;;;;5035838;28;20037;-81
2022/04/21 02:13:20;;;;;;;16.20;11.43;;;6.40;99.90;;;;;;5036068;28;20459;-81
2022/04/21 02:15:46;;;;;;;15.55;10.57;;;6.80;99.90;;;;;;5051753;28;20083;-81
2022/04/21 02:18:12;;;;;;;16.67;10.43;;;6.40;99.90;;;;;;5052582;28;20052;-81
2022/04/21 02:20:38;;;;;;;14.13;9.95;;;6.40;99.90;;;;;;5035788;28;20049;-81
2022/04/21 02:23:03;;;;;;;15.38;10.43;;;6.50;99.90;;;;;;5035931;28;20044;-81
2022/04/21 02:25:29;;;;;;;14.10;10.15;;;6.50;99.90;;;;;;5035600;28;20044;-81
2022/04/21 02:27:55;;;;;;;14.40;9.73;;;6.50;99.90;;;;;;5052597;28;20047;-81
2022/04/21 02:30:20;;;;;;;18.45;10.63;;;6.50;99.90;;;;;;5052504;28;20048;-81
2022/04/21 02:32:46;;;;;;;16.38;11.50;;;6.70;99.90;;;;;;5050967;28;20045;-81
2022/04/21 02:35:13;;;;;;;17.15;12.15;;;6.50;99.90;;;;;;5035573;28;20037;-81
2022/04/21 02:37:42;;;;;;;17.80;12.90;;;6.50;99.90;;;;;;5035631;28;20047;-81
2022/04/21 02:40:09;;;;;;;16.10;11.88;;;6.30;99.90;;;;;;5035411;28;20048;-81
2022/04/21 02:42:38;;;;;;;16.85;11.50;;;6.20;99.90;;;;;;5052330;28;20388;-81
2022/04/21 02:45:05;;;;;;;15.68;11.23;;;6.10;99.90;;;;;;5052073;28;20040;-81
2022/04/21 02:47:31;;;;;;;14.90;11.48;;;6.10;99.90;;;;;;5034592;28;20138;-81
2022/04/21 02:49:57;;;;;;;15.82;11.93;;;6.20;99.90;;;;;;5035440;28;20211;-81
2022/04/21 02:52:23;;;;;;;16.38;12.25;;;6.20;99.90;;;;;;5051812;28;20048;-81
2022/04/21 02:57:34;;;;;;;16.17;11.48;;;6.10;99.90;;;;;;5051588;28;20099;-81
2022/04/21 03:00:05;;;;;;;15.38;11.55;;;6.20;99.90;;;;;;5051847;28;20041;-81
2022/04/21 03:02:31;;;;;;;18.52;12.27;;;6.20;99.90;;;;;;5033918;28;20133;-81
2022/04/21 03:04:57;;;;;;;15.75;12.02;;;6.10;99.90;;;;;;5035138;28;20077;-81
2022/04/21 03:07:23;;;;;;;14.52;10.48;;;6.10;99.90;;;;;;5035218;28;20048;-80
2022/04/21 03:09:53;;;;;;;15.23;10.27;;;6.10;99.90;;;;;;5051871;28;20128;-80
2022/04/21 03:12:21;;;;;;;17.10;11.40;;;6.10;99.90;;;;;;5051290;28;20037;-80
2022/04/21 03:14:49;;;;;;;14.27;10.38;;;6.20;99.90;;;;;;5035388;28;20041;-80
2022/04/21 03:17:15;;;;;;;14.80;11.10;;;6.10;99.90;;;;;;5050925;28;20044;-80
2022/04/21 03:19:41;;;;;;;13.73;9.85;;;6.10;99.90;;;;;;5051594;28;20041;-80
2022/04/21 03:24:54;;;;;;;17.17;11.50;;;6.20;99.90;;;;;;5051491;28;20060;-80
2022/04/21 03:27:20;;;;;;;16.88;11.70;;;6.30;99.90;;;;;;5051201;28;20041;-80
2022/04/21 03:29:46;;;;;;;16.08;11.65;;;6.10;99.90;;;;;;5051353;28;20155;-80
2022/04/21 03:32:13;;;;;;;15.30;11.60;;;6.00;99.90;;;;;;5033745;28;20041;-80
2022/04/21 03:34:43;;;;;;;16.60;11.57;;;6.00;99.90;;;;;;5051480;28;20051;-80
2022/04/21 03:37:10;;;;;;;16.33;11.73;;;6.00;99.90;;;;;;5050968;28;20033;-80
2022/04/21 03:39:37;;;;;;;14.85;10.20;;;6.00;99.90;;;;;;5051326;28;20079;-80
2022/04/21 03:42:04;;;;;;;13.07;9.30;;;6.00;99.90;;;;;;5051092;28;20045;-80
2022/04/21 03:44:30;;;;;;;15.15;11.75;;;5.90;99.90;;;;;;5062803;28;20048;-80
2022/04/21 03:46:58;;;;;;;16.65;12.15;;;5.90;99.90;;;;;;5070295;28;20562;-80
2022/04/21 03:49:29;;;;;;;17.15;11.82;;;5.90;99.90;;;;;;5054885;28;20036;-80
2022/04/21 03:51:56;;;;;;;16.23;11.73;;;5.90;99.90;;;;;;5070880;28;20124;-80
2022/04/21 03:54:23;;;;;;;16.42;11.82;;;5.90;99.90;;;;;;5071152;28;20127;-80
2022/04/21 03:56:50;;;;;;;16.45;11.50;;;5.90;99.90;;;;;;5071156;28;20488;-80
2022/04/21 03:59:17;;;;;;;14.82;11.40;;;6.00;99.90;;;;;;5054805;28;20432;-80
2022/04/21 04:01:43;;;;;;;15.27;11.10;;;5.80;99.90;;;;;;5070350;28;20045;-80
2022/04/21 04:04:09;;;;;;;16.48;11.50;;;5.80;99.90;;;;;;5071115;28;20044;-80
2022/04/21 04:12:03;;;;;;;16.23;12.05;;;5.90;99.90;;;;;;5070934;28;20539;-80
2022/04/21 04:14:29;;;;;;;15.30;11.65;;;5.90;99.90;;;;;;5056546;28;20050;-80
2022/04/21 04:16:55;;;;;;;15.10;11.27;;;5.90;99.90;;;;;;5057399;28;20066;-80
2022/04/21 04:19:21;;;;;;;16.77;12.68;;;5.90;99.90;;;;;;5091774;28;20036;-80
2022/04/21 04:21:47;;;;;;;15.85;11.25;;;5.90;99.90;;;;;;5058271;28;20040;-80
2022/04/21 04:24:12;;;;;;;16.10;12.35;;;5.80;99.90;;;;;;5041660;28;20048;-80
2022/04/21 04:26:38;;;;;;;15.73;12.07;;;5.80;99.90;;;;;;5091425;28;20040;-80
2022/04/21 04:29:04;;;;;;;16.90;12.60;;;5.80;99.90;;;;;;5058378;28;20063;-80
2022/04/21 04:31:30;;;;;;;16.50;12.07;;;5.70;99.90;;;;;;5073772;28;20094;-80
2022/04/21 04:33:56;;;;;;;17.02;12.07;;;5.70;99.90;;;;;;5057875;28;20055;-80
2022/04/21 04:36:22;;;;;;;16.70;12.20;;;5.70;99.90;;;;;;5074561;28;20044;-80
2022/04/21 04:38:48;;;;;;;16.80;12.40;;;5.70;99.90;;;;;;5057984;28;20135;-80
2022/04/21 04:43:59;;;;;;;15.10;11.77;;;5.70;99.90;;;;;;5074465;28;20086;-80
2022/04/21 04:46:40;;;;;;;15.85;12.57;;;5.70;99.90;;;;;;5039198;28;20453;-80
2022/04/21 04:49:10;;;;;;;17.10;11.82;;;5.80;99.90;;;;;;5074313;28;20090;-79
2022/04/21 04:51:38;;;;;;;15.45;12.05;;;5.80;99.90;;;;;;5073957;28;20037;-79
2022/04/21 04:54:07;;;;;;;16.30;11.52;;;5.80;99.90;;;;;;5057450;28;20040;-80
2022/04/21 04:56:35;;;;;;;14.75;10.63;;;5.70;99.90;;;;;;5066394;28;20037;-80
2022/04/21 04:59:00;;;;;;;14.00;10.90;;;6.20;99.90;;;;;;5046893;28;20100;-81
2022/04/21 05:01:41;;;;;;;17.08;11.05;;;5.90;99.90;;;;;;5051150;28;20036;-80
2022/04/21 05:04:18;;;;;;;15.07;11.65;;;5.90;99.90;;;;;;5074461;28;20052;-80
2022/04/21 05:06:51;;;;;;;14.90;11.52;;;5.90;99.90;;;;;;5063958;28;20451;-80
2022/04/21 05:09:21;;;;;;;17.13;12.10;;;6.00;99.90;;;;;;5046316;28;20077;-80
2022/04/21 05:11:52;;;;;;;15.35;11.82;;;5.90;99.90;;;;;;5078426;28;20046;-83
2022/04/21 05:14:19;;;;;;;16.85;11.60;;;6.00;99.90;;;;;;5074841;28;20045;-83
2022/04/21 05:16:45;;;;;;;15.50;11.45;;;6.00;99.90;;;;;;5073426;28;20033;-86
2022/04/21 05:19:13;;;;;;;15.98;11.35;;;6.00;99.90;;;;;;5057837;28;20044;-83
2022/04/21 05:21:40;;;;;;;14.95;11.35;;;6.00;99.90;;;;;;5073746;28;20041;-84
2022/04/21 05:24:07;;;;;;;17.25;12.20;;;6.20;99.90;;;;;;5053500;28;20753;-81
2022/04/21 05:26:34;;;;;;;14.82;10.95;;;6.30;99.90;;;;;;5073134;28;20044;-82
2022/04/21 05:30:55;;;;;;;16.10;11.35;;;6.40;99.90;;;;;;5073631;28;20037;-81
2022/04/21 05:31:56;;;;;;;15.20;11.32;;;6.50;99.90;;;;;;5072686;28;20157;-80
2022/04/21 05:34:27;;;;;;;16.75;11.23;;;6.60;99.90;;;;;;5073517;28;20569;-80
2022/04/21 05:36:53;;;;;;;17.80;11.32;;;6.70;99.90;;;;;;5073254;28;20531;-80
2022/04/21 05:39:20;;;;;;;14.73;10.68;;;6.80;99.90;;;;;;5056928;28;20083;-82
2022/04/21 05:41:47;;;;;;;15.52;10.40;;;6.90;99.90;;;;;;5040122;28;20076;-82
2022/04/21 05:44:13;;;;;;;15.27;10.68;;;7.10;99.90;;;;;;5056774;28;20125;-82
2022/04/21 05:46:39;;;;;;;14.25;10.15;;;7.20;99.90;;;;;;5056167;28;20093;-82
2022/04/21 05:49:05;;;;;;;15.18;10.05;;;7.30;99.90;;;;;;5073325;28;20052;-82
2022/04/21 05:51:31;;;;;;;15.52;9.93;;;7.50;99.90;;;;;;5039846;28;20049;-82
2022/04/21 05:53:58;;;;;;;12.57;8.73;;;7.70;99.90;;;;;;5073321;28;20045;-82
2022/04/21 05:56:25;;;;;;;13.52;9.68;;;8.00;99.90;;;;;;5056730;28;20411;-82
2022/04/21 05:58:51;;;;;;;14.27;9.43;;;8.20;99.90;;;;;;5056761;28;20029;-82
2022/04/21 06:01:18;;;;;;;11.48;8.60;;;8.40;99.90;;;;;;5072451;28;20036;-81
2022/04/21 06:03:44;;;;;;;12.35;8.50;;;8.70;99.90;;;;;;5073399;28;20127;-82
2022/04/21 06:06:10;;;;;;;12.05;8.50;;;9.20;99.90;;;;;;5053960;28;20480;-82
2022/04/21 06:08:37;;;;;;;12.55;8.60;;;9.20;99.90;;;;;;5048178;28;20480;-82
2022/04/21 06:11:03;;;;;;;11.85;7.75;;;9.50;99.90;;;;;;5072217;28;20040;-82
2022/04/21 06:13:30;;;;;;;10.73;7.43;;;9.80;99.90;;;;;;5056352;28;20040;-82
2022/04/21 06:15:57;;;;;;;13.52;8.38;;;10.10;99.90;;;;;;5055305;28;20047;-82
2022/04/21 06:18:26;;;;;;;11.38;7.15;;;10.20;99.90;;;;;;5072713;28;20036;-82
2022/04/21 06:20:53;;;;;;;11.27;7.60;;;10.60;99.90;;;;;;5056108;28;20043;-82
2022/04/21 06:23:20;;;;;;;10.43;6.57;;;11.10;99.90;;;;;;5072770;28;20041;-82
2022/04/21 06:25:46;;;;;;;11.57;6.93;;;11.20;98.70;;;;;;5072680;28;20535;-82
2022/04/21 06:28:13;;;;;;;11.15;6.65;;;11.50;99.20;;;;;;5072533;28;20044;-82
2022/04/21 06:30:39;;;;;;;9.93;7.00;;;11.70;96.40;;;;;;5071535;28;20041;-82
2022/04/21 06:33:06;;;;;;;9.07;5.82;;;11.70;96.80;;;;;;5068734;28;20049;-82
2022/04/21 06:35:32;;;;;;;12.15;6.20;;;12.10;97.60;;;;;;5035927;28;20044;-82
2022/04/21 06:37:58;;;;;;;8.73;5.97;;;12.60;91.30;;;;;;5035369;28;20047;-82
2022/04/21 06:40:24;;;;;;;9.18;5.25;;;12.40;90.70;;;;;;5035829;28;20470;-82
2022/04/21 06:42:50;;;;;;;9.13;5.72;;;12.70;90.90;;;;;;5052148;28;20045;-82
2022/04/21 06:48:03;;;;;;;9.82;5.38;;;12.50;88.00;;;;;;5052358;28;20041;-82
2022/04/21 06:50:29;;;;;;;8.65;5.40;;;12.90;83.30;;;;;;5036254;28;20048;-82
2022/04/21 06:52:55;;;;;;;8.05;4.72;;;13.10;88.20;;;;;;5065910;28;20028;-82
2022/04/21 06:55:20;;;;;;;6.97;5.03;;;13.40;77.10;;;;;;5054692;28;20080;-83
2022/04/21 06:57:46;;;;;;;8.55;4.88;;;13.40;74.90;;;;;;5055171;28;20036;-82
2022/04/21 07:00:12;;;;;;;8.85;4.57;;;13.00;78.80;;;;;;5055219;28;20123;-81
2022/04/21 07:02:38;;;;;;;8.68;4.38;;;12.90;72.90;;;;;;5037906;28;20036;-82
2022/04/21 07:05:10;;;;;;;8.25;4.30;;;12.80;77.60;;;;;;5072028;28;20123;-82
2022/04/21 07:07:37;;;;;;;6.95;4.07;;;12.70;73.70;;;;;;5055446;28;20530;-82
2022/04/21 07:10:03;;;;;;;7.85;4.50;;;12.70;75.90;;;;;;5055246;28;20129;-82
2022/04/21 07:12:30;;;;;;;7.38;4.15;;;12.70;74.40;;;;;;4982161;28;20469;-83
2022/04/21 07:15:01;;;;;;;7.10;4.40;;;12.80;76.30;;;;;;5051581;28;20044;-82
2022/04/21 07:17:27;;;;;;;8.48;4.15;;;12.60;77.10;;;;;;5052318;28;20054;-82
2022/04/21 07:19:53;;;;;;;7.00;3.85;;;12.70;76.40;;;;;;5036773;28;20040;-82
2022/04/21 07:22:25;;;;;;;7.72;4.15;;;12.80;75.30;;;;;;5038073;28;20077;-81
2022/04/21 07:24:56;;;;;;;6.78;3.72;;;13.40;74.40;;;;;;5034322;28;20039;-82
2022/04/21 07:27:23;;;;;;;7.38;3.67;;;13.60;71.80;;;;;;5050724;28;20672;-82
2022/04/21 07:29:49;;;;;;;7.15;4.20;;;13.50;68.50;;;;;;5046185;28;20047;-82
2022/04/21 07:32:15;;;;;;;6.93;3.83;;;13.60;67.40;;;;;;5048044;28;20492;-82
2022/04/21 07:34:41;;;;;;;6.63;3.50;;;13.70;68.00;;;;;;5034556;28;20064;-82
2022/04/21 07:37:10;;;;;;;7.43;3.80;;;13.60;64.20;;;;;;5067416;28;20086;-81
2022/04/21 07:39:42;;;;;;;6.47;3.60;;;13.80;65.80;;;;;;5068341;28;20036;-82
2022/04/21 07:42:10;;;;;;;6.53;3.47;;;14.00;66.20;;;;;;5050311;28;20106;-82
2022/04/21 07:44:36;;;;;;;6.53;3.03;;;14.10;65.30;;;;;;5035682;28;20044;-82
2022/04/21 07:47:04;;;;;;;5.53;3.00;;;14.00;63.10;;;;;;5067646;28;20569;-82
2022/04/21 07:49:45;;;;;;;7.32;3.50;;;14.20;61.20;;;;;;5071066;28;20044;-82
2022/04/21 07:55:10;;;;;;;6.22;3.15;;;14.70;62.70;;;;;;5059689;28;20535;-82
2022/04/21 07:57:36;;;;;;;5.85;3.10;;;14.80;60.30;;;;;;5071845;28;20041;-82
2022/04/21 08:00:04;;;;;;;6.38;3.10;;;14.80;59.60;;;;;;5055651;28;20035;-82
2022/04/21 08:02:29;;;;;;;5.70;3.17;;;14.50;59.90;;;;;;5071091;28;20040;-82
2022/04/21 08:04:55;;;;;;;5.22;2.45;;;14.60;58.70;;;;;;5058145;28;20051;-82
2022/04/21 08:07:21;;;;;;;5.53;2.80;;;14.70;60.20;;;;;;5043127;28;20131;-82
2022/04/21 08:09:47;;;;;;;6.80;3.00;;;15.20;57.10;;;;;;5039455;28;20411;-82
2022/04/21 08:12:13;;;;;;;7.05;2.90;;;15.20;57.10;;;;;;5054375;28;20032;-82
2022/04/21 08:14:39;;;;;;;5.65;3.00;;;15.40;57.50;;;;;;5043825;28;20065;-82
2022/04/21 08:17:05;;;;;;;5.60;2.80;;;15.70;59.30;;;;;;5038156;28;20043;-82
2022/04/21 08:19:32;;;;;;;7.15;2.90;;;15.80;55.50;;;;;;5056026;28;20399;-81
2022/04/21 08:21:58;;;;;;;5.55;2.85;;;15.90;55.20;;;;;;5072075;28;20128;-80
2022/04/21 08:32:43;;;;;;;7.82;2.75;;;16.00;54.90;;;;;;5052235;28;20059;-84
2022/04/21 08:35:13;;;;;;;6.03;2.85;;;16.00;55.00;;;;;;5066311;28;20504;-83
2022/04/21 08:37:42;;;;;;;7.13;2.90;;;16.30;52.90;;;;;;5069330;28;20032;-84
2022/04/21 08:40:10;;;;;;;6.28;2.80;;;16.10;53.20;;;;;;5067431;28;20140;-83
2022/04/21 08:42:39;;;;;;;7.30;3.08;;;15.90;52.50;;;;;;5055735;28;20052;-84
2022/04/21 08:45:08;;;;;;;7.07;3.05;;;15.60;54.90;;;;;;5071406;28;20050;-84
2022/04/21 08:47:34;;;;;;;5.82;3.08;;;15.80;53.80;;;;;;5054853;28;20499;-83
2022/04/21 08:50:11;;;;;;;10.43;3.33;;;15.80;53.50;;;;;;5063891;28;20044;-83
2022/04/21 08:52:38;;;;;;;6.82;3.00;;;16.30;52.90;;;;;;5064564;28;20048;-83
2022/04/21 08:55:04;;;;;;;7.00;3.20;;;16.10;53.60;;;;;;5039176;28;20552;-83
2022/04/21 08:57:30;;;;;;;5.75;3.13;;;16.10;53.80;;;;;;5055554;28;20037;-83
2022/04/21 08:59:57;;;;;;;8.23;3.35;;;15.60;53.90;;;;;;5068033;28;20120;-83
2022/04/21 09:02:38;;;;;;;6.57;3.03;;;15.80;54.40;;;;;;5056055;28;20515;-84
2022/04/21 09:05:05;;;;;;;6.63;3.40;;;16.20;53.10;;;;;;5068044;28;20040;-83
2022/04/21 09:07:31;;;;;;;6.38;3.17;;;15.60;53.60;;;;;;5055141;28;20036;-83
2022/04/21 09:10:08;;;;;;;8.50;3.00;;;15.80;54.10;;;;;;5038795;28;20136;-83
2022/04/21 09:12:36;;;;;;;6.30;2.88;;;16.10;55.10;;;;;;5052836;28;20044;-83
2022/04/21 09:15:07;;;;;;;6.57;3.15;;;16.30;53.30;;;;;;5050542;28;20110;-83
2022/04/21 09:17:39;;;;;;;5.97;2.80;;;16.60;52.70;;;;;;5072393;28;20029;-83
2022/04/21 09:20:05;;;;;;;6.47;2.85;;;16.40;52.90;;;;;;5056119;28;20029;-83
2022/04/21 09:22:33;;;;;;;9.73;2.83;;;16.40;52.20;;;;;;5072603;28;20054;-83
2022/04/21 09:24:59;;;;;;;5.35;2.50;;;16.40;52.90;;;;;;5056251;28;20035;-83
2022/04/21 09:27:48;;;;;;;6.15;2.90;;;16.80;53.40;;;;;;5055952;28;20043;-84
2022/04/21 09:30:14;;;;;;;6.22;2.80;;;16.90;51.20;;;;;;5054008;28;20055;-83
2022/04/21 09:32:41;;;;;;;6.50;2.88;;;17.10;50.70;;;;;;5071259;28;20037;-84
2022/04/21 09:35:09;;;;;;;5.32;2.60;;;17.00;50.70;;;;;;5072886;28;20444;-84
2022/04/21 09:37:50;;;;;;;6.32;2.60;;;17.00;49.90;;;;;;5039528;28;20040;-84
2022/04/21 09:40:27;;;;;;;9.23;3.10;;;16.80;51.10;;;;;;5035076;28;20075;-84
2022/04/21 09:42:55;;;;;;;7.13;2.75;;;16.70;49.50;;;;;;5071971;28;20051;-83
2022/04/21 09:48:23;;;;;;;7.38;2.80;;;16.90;50.50;;;;;;5067564;28;20106;-84
2022/04/21 09:50:53;;;;;;;7.15;2.90;;;17.00;50.50;;;;;;5052635;28;20504;-84
2022/04/21 09:53:20;;;;;;;7.55;2.80;;;17.10;49.50;;;;;;5054200;28;20036;-84
2022/04/21 09:55:49;;;;;;;5.30;2.92;;;17.40;50.10;;;;;;5052606;28;20033;-84
2022/04/21 09:58:15;;;;;;;8.60;2.80;;;17.70;49.80;;;;;;5071126;28;20040;-84
2022/04/21 10:00:42;;;;;;;6.97;2.60;;;18.00;48.20;;;;;;5066835;28;20474;-84
2022/04/21 10:03:08;;;;;;;10.73;2.90;;;17.90;46.80;;;;;;5050977;28;20067;-84
2022/04/21 10:05:36;;;;;;;5.50;2.95;;;17.90;47.70;;;;;;5054121;28;20064;-84
2022/04/21 10:08:03;;;;;;;6.75;2.90;;;18.00;48.10;;;;;;5053193;28;20502;-84
2022/04/21 10:10:30;;;;;;;6.65;2.97;;;17.80;47.70;;;;;;5069328;28;20094;-84
2022/04/21 10:12:58;;;;;;;7.88;2.92;;;17.80;47.60;;;;;;5032599;28;20068;-84
2022/04/21 10:15:24;;;;;;;5.68;2.95;;;17.60;47.40;;;;;;5070390;28;20060;-84
2022/04/21 10:17:50;;;;;;;6.15;2.60;;;17.50;48.20;;;;;;5070892;28;20115;-84
2022/04/21 10:20:16;;;;;;;6.38;2.53;;;18.00;48.60;;;;;;5071243;28;20037;-84
2022/04/21 10:22:43;;;;;;;6.57;3.10;;;18.10;47.70;;;;;;5070075;28;20101;-84
2022/04/21 10:25:09;;;;;;;5.95;3.00;;;18.40;47.50;;;;;;5070963;28;20041;-84
2022/04/21 10:27:42;;;;;;;6.25;3.00;;;18.20;46.20;;;;;;5070664;28;20489;-84
2022/04/21 10:30:38;;;;;;;7.00;3.10;;;17.60;47.10;;;;;;5054483;28;20115;-83
2022/04/21 10:33:03;;;;;;;8.40;3.05;;;18.00;47.80;;;;;;5043180;28;20041;-84
2022/04/21 10:35:29;;;;;;;6.63;2.75;;;17.60;47.90;;;;;;5070932;28;20404;-84
2022/04/21 10:38:14;;;;;;;7.15;2.95;;;17.30;47.90;;;;;;5071246;28;20471;-84
2022/04/21 10:41:07;;;;;;;6.65;2.72;;;17.40;48.00;;;;;;5068431;28;20476;-84
2022/04/21 10:43:48;;;;;;;5.53;2.72;;;17.50;46.50;;;;;;5067932;28;20070;-82
2022/04/21 10:46:24;;;;;;;5.75;3.08;;;17.30;46.30;;;;;;5068548;28;20055;-82
2022/04/21 10:48:50;;;;;;;5.13;2.90;;;17.00;48.10;;;;;;5054844;28;20047;-82
2022/04/21 10:57:33;;;;;;;5.03;2.40;;;17.70;47.80;;;;;;5069658;28;20045;-82
2022/04/21 11:00:03;;;;;;;5.68;2.90;;;17.90;46.40;;;;;;5072259;28;20044;-82
2022/04/21 11:02:40;;;;;;;6.13;2.85;;;18.00;45.50;;;;;;5068263;28;20423;-82
2022/04/21 11:05:33;;;;;;;7.25;3.10;;;18.00;46.20;;;;;;5048090;28;20036;-82
2022/04/21 11:08:01;;;;;;;6.28;2.80;;;18.10;47.60;;;;;;5068141;28;20044;-82
2022/04/21 11:10:32;;;;;;;6.38;2.78;;;17.70;45.80;;;;;;5051015;28;20044;-82
2022/04/21 11:12:58;;;;;;;6.28;2.72;;;18.10;46.30;;;;;;5069883;28;20412;-82
2022/04/21 11:15:39;;;;;;;5.95;3.15;;;17.60;46.10;;;;;;5052500;28;20029;-82
2022/04/21 11:18:10;;;;;;;7.20;3.00;;;17.50;47.00;;;;;;5067054;28;20503;-82
2022/04/21 11:20:39;;;;;;;6.27;3.27;;;17.60;46.70;;;;;;5068196;28;20044;-82
2022/04/21 11:23:10;;;;;;;7.20;3.10;;;17.50;47.10;;;;;;5069447;28;20278;-82
2022/04/21 11:25:36;;;;;;;5.45;2.90;;;17.60;47.60;;;;;;5063345;28;20037;-82
2022/04/21 11:28:02;;;;;;;6.53;3.03;;;18.00;48.00;;;;;;5050551;28;20138;-82
2022/04/21 11:30:31;;;;;;;6.93;3.45;;;18.20;46.10;;;;;;5053335;28;20055;-83
2022/04/21 11:32:57;;;;;;;7.50;3.28;;;17.90;45.60;;;;;;5039230;28;20067;-83
2022/04/21 11:35:24;;;;;;;6.25;3.00;;;17.90;46.90;;;;;;5070499;28;20056;-83
2022/04/21 11:38:00;;;;;;;7.82;3.30;;;18.00;45.10;;;;;;5066819;28;20040;-83
2022/04/21 11:40:34;;;;;;;5.80;3.60;;;18.00;46.80;;;;;;5069112;28;20158;-83
2022/04/21 11:43:16;;;;;;;6.28;3.20;;;17.80;46.80;;;;;;5051772;28;20446;-83
2022/04/21 11:46:01;;;;;;;7.63;3.33;;;17.80;46.50;;;;;;5050779;28;20101;-83
2022/04/21 11:48:29;;;;;;;6.38;3.65;;;17.80;48.50;;;;;;5052275;28;20484;-83
2022/04/21 11:50:55;;;;;;;7.45;3.22;;;17.90;47.90;;;;;;5036341;28;20048;-82
2022/04/21 11:53:20;;;;;;;7.15;3.70;;;17.90;48.70;;;;;;5065519;28;20060;-81
2022/04/21 11:55:48;;;;;;;7.97;3.50;;;17.90;48.80;;;;;;5068695;28;20068;-82
2022/04/21 11:58:45;;;;;;;8.10;3.22;;;17.60;49.50;;;;;;5067559;28;20037;-82
2022/04/21 12:06:48;;;;;;;7.00;3.55;;;17.90;48.40;;;;;;5068780;28;20557;-82
2022/04/21 12:09:19;;;;;;;7.25;3.50;;;18.10;47.90;;;;;;5065589;28;20043;-82
2022/04/21 12:11:51;;;;;;;6.53;3.58;;;18.00;47.80;;;;;;5064816;28;20048;-82
2022/04/21 12:14:18;;;;;;;7.15;3.38;;;18.00;47.70;;;;;;5066081;28;20040;-82
2022/04/21 12:16:45;;;;;;;6.55;3.50;;;17.80;48.20;;;;;;5052376;28;20037;-82
2022/04/21 12:19:17;;;;;;;6.88;3.20;;;17.80;47.70;;;;;;5066827;28;20048;-82
2022/04/21 12:21:45;;;;;;;6.88;3.60;;;17.30;47.90;;;;;;5049844;28;20041;-82
2022/04/21 12:24:16;;;;;;;6.75;3.40;;;17.00;47.90;;;;;;5050157;28;20040;-82
2022/04/21 12:26:50;;;;;;;7.38;3.92;;;17.30;48.10;;;;;;5066683;28;20045;-82
2022/04/21 12:29:16;;;;;;;6.75;3.50;;;17.20;48.80;;;;;;5070585;28;20066;-82
2022/04/21 12:31:51;;;;;;;6.53;3.80;;;17.40;49.30;;;;;;5065418;28;20110;-82
2022/04/21 12:34:26;;;;;;;5.93;3.42;;;17.00;48.80;;;;;;5067176;28;20533;-82
2022/04/21 12:36:57;;;;;;;6.72;3.78;;;17.10;50.30;;;;;;5073434;28;20563;-82
2022/04/21 12:39:23;;;;;;;7.28;3.72;;;17.50;48.60;;;;;;5073424;28;20038;-82
2022/04/21 12:41:51;;;;;;;7.82;3.50;;;17.80;49.80;;;;;;5089870;28;20083;-82
2022/04/21 12:44:19;;;;;;;7.35;4.00;;;17.90;48.30;;;;;;5073523;28;20068;-83
2022/04/21 12:47:11;;;;;;;6.40;3.67;;;17.60;47.50;;;;;;5073063;28;20505;-83
2022/04/21 12:49:56;;;;;;;6.22;3.65;;;17.70;49.10;;;;;;5072839;28;20411;-82
2022/04/21 12:52:34;;;;;;;7.07;3.28;;;18.20;49.30;;;;;;5069001;28;20044;-82
2022/04/21 12:55:03;;;;;;;7.15;3.80;;;18.40;49.00;;;;;;5065848;28;20044;-81
2022/04/21 12:57:28;;;;;;;6.22;3.92;;;18.10;49.20;;;;;;5075942;28;20056;-81
2022/04/21 12:59:55;;;;;;;6.72;3.70;;;18.60;49.90;;;;;;5056333;28;20040;-81
2022/04/21 13:02:21;;;;;;;6.88;3.80;;;18.80;48.50;;;;;;5055176;28;20050;-81
2022/04/21 13:04:47;;;;;;;7.00;4.00;;;18.80;47.40;;;;;;5039786;28;20044;-81
2022/04/21 13:07:13;;;;;;;6.68;3.60;;;18.60;46.90;;;;;;5055760;28;20040;-81
2022/04/21 13:09:39;;;;;;;6.70;3.83;;;18.00;48.20;;;;;;5073006;28;20500;-82
2022/04/21 13:12:06;;;;;;;6.15;3.72;;;17.90;48.50;;;;;;5055848;28;20090;-83
2022/04/21 13:14:31;;;;;;;7.60;3.70;;;17.90;49.50;;;;;;5040750;28;20499;-83
2022/04/21 13:16:57;;;;;;;14.15;4.10;;;18.00;50.30;;;;;;5053822;28;20044;-83
2022/04/21 13:19:24;;;;;;;7.55;3.70;;;18.20;49.60;;;;;;5072679;28;20047;-83
2022/04/21 13:21:52;;;;;;;6.32;3.67;;;18.40;48.30;;;;;;5055816;28;20377;-82
2022/04/21 13:24:23;;;;;;;6.82;3.80;;;18.60;49.70;;;;;;5056583;28;20044;-82
2022/04/21 13:26:49;;;;;;;7.22;3.67;;;18.70;49.10;;;;;;5069738;28;20044;-82
2022/04/21 13:29:15;;;;;;;6.00;3.80;;;18.90;48.90;;;;;;5072435;28;20047;-81
2022/04/21 13:34:25;;;;;;;7.72;3.67;;;19.00;47.70;;;;;;5042263;28;20125;-81
2022/04/21 13:36:51;;;;;;;7.88;3.97;;;18.80;47.90;;;;;;5069804;28;20479;-81
2022/04/21 13:39:18;;;;;;;7.05;3.47;;;18.80;47.80;;;;;;5069320;28;20039;-81
2022/04/21 13:41:43;;;;;;;7.68;4.22;;;19.00;45.90;;;;;;5071639;28;20111;-81